createdAt,value
2019-03-18T00:01:45.443Z,45.04
2019-03-18T00:04:12.650Z,45.12
2019-03-18T00:06:40.007Z,45.12
2019-03-18T00:09:07.204Z,45.04
2019-03-18T00:11:34.473Z,44.94
2019-03-18T00:14:01.662Z,45.17
2019-03-18T00:16:28.927Z,45.53
2019-03-18T00:18:56.111Z,45.60
2019-03-18T00:21:23.285Z,45.64
2019-03-18T00:23:50.496Z,45.69
2019-03-18T00:26:17.750Z,45.60
2019-03-18T00:28:44.921Z,45.68
2019-03-18T00:31:12.093Z,45.73
2019-03-18T00:33:39.314Z,46.69
2019-03-18T00:36:07.138Z,46.69
2019-03-18T00:38:34.387Z,46.34
2019-03-18T00:41:01.599Z,46.34
2019-03-18T00:43:28.818Z,45.98
2019-03-18T00:45:56.060Z,45.78
2019-03-18T00:48:23.303Z,45.78
2019-03-18T00:50:50.501Z,45.95
2019-03-18T00:53:17.771Z,45.87
2019-03-18T00:55:44.995Z,45.95
2019-03-18T00:58:12.227Z,45.91
2019-03-18T01:00:39.493Z,45.91
2019-03-18T01:03:06.814Z,46.14
2019-03-18T01:05:34.026Z,45.94
2019-03-18T01:08:01.276Z,46.03
2019-03-18T01:10:28.521Z,45.93
2019-03-18T01:12:55.741Z,45.92
2019-03-18T01:15:28.287Z,46.04
2019-03-18T01:17:52.142Z,45.89
2019-03-18T01:20:19.435Z,45.95
2019-03-18T01:22:46.698Z,46.02
2019-03-18T01:25:13.949Z,46.24
2019-03-18T01:27:41.170Z,46.02
2019-03-18T01:30:08.394Z,46.04
2019-03-18T01:32:35.663Z,46.50
2019-03-18T01:35:02.923Z,46.91
2019-03-18T01:37:30.127Z,46.92
2019-03-18T01:39:57.456Z,46.67
2019-03-18T01:42:24.645Z,46.57
2019-03-18T01:44:51.943Z,47.78
2019-03-18T01:47:19.156Z,47.51
2019-03-18T01:49:46.422Z,47.69
2019-03-18T01:52:13.661Z,47.45
2019-03-18T01:54:40.962Z,47.67
2019-03-18T01:57:08.179Z,47.62
2019-03-18T01:59:35.596Z,47.55
2019-03-18T02:02:02.775Z,47.41
2019-03-18T02:04:30.125Z,47.36
2019-03-18T02:06:57.467Z,48.50
2019-03-18T02:09:24.718Z,48.02
2019-03-18T02:11:52.081Z,47.41
2019-03-18T02:14:19.328Z,47.25
2019-03-18T02:16:46.541Z,47.20
2019-03-18T02:19:13.890Z,47.19
2019-03-18T02:21:41.228Z,47.26
2019-03-18T02:24:08.582Z,47.24
2019-03-18T02:26:35.793Z,47.20
2019-03-18T02:29:03.109Z,47.15
2019-03-18T02:31:30.380Z,47.08
2019-03-18T02:33:57.807Z,47.17
2019-03-18T02:36:25.026Z,47.24
2019-03-18T02:38:52.341Z,47.24
2019-03-18T02:41:19.664Z,47.23
2019-03-18T02:43:47.001Z,47.21
2019-03-18T02:46:14.277Z,47.32
2019-03-18T02:48:41.446Z,47.28
2019-03-18T02:51:08.670Z,47.32
2019-03-18T02:53:35.894Z,47.24
2019-03-18T02:56:03.063Z,47.30
2019-03-18T02:58:30.408Z,47.91
2019-03-18T03:00:57.678Z,47.55
2019-03-18T03:03:24.862Z,47.50
2019-03-18T03:05:52.197Z,47.48
2019-03-18T03:08:19.419Z,47.50
2019-03-18T03:10:46.662Z,47.51
2019-03-18T03:13:13.875Z,47.46
2019-03-18T03:15:41.141Z,47.50
2019-03-18T03:18:08.301Z,47.46
2019-03-18T03:20:35.632Z,47.46
2019-03-18T03:23:02.886Z,47.56
2019-03-18T03:25:30.060Z,47.51
2019-03-18T03:27:57.346Z,47.52
2019-03-18T03:30:24.698Z,47.72
2019-03-18T03:32:51.908Z,47.58
2019-03-18T03:35:19.147Z,47.59
2019-03-18T03:37:46.409Z,47.61
2019-03-18T03:40:13.683Z,47.53
2019-03-18T03:42:40.879Z,47.42
2019-03-18T03:45:08.267Z,47.31
2019-03-18T03:47:35.459Z,47.31
2019-03-18T03:50:02.711Z,47.68
2019-03-18T03:52:29.984Z,47.68
2019-03-18T03:54:57.181Z,47.42
2019-03-18T03:57:24.400Z,47.60
2019-03-18T03:59:51.646Z,47.42
2019-03-18T04:02:18.834Z,47.45
2019-03-18T04:04:46.182Z,47.57
2019-03-18T04:07:13.499Z,47.38
2019-03-18T04:09:40.805Z,47.50
2019-03-18T04:12:08.153Z,47.50
2019-03-18T04:14:35.339Z,47.63
2019-03-18T04:17:03.056Z,47.54
2019-03-18T04:19:30.496Z,47.50
2019-03-18T04:21:57.710Z,47.50
2019-03-18T04:24:25.237Z,47.54
2019-03-18T04:26:52.534Z,47.53
2019-03-18T04:29:21.744Z,47.48
2019-03-18T04:31:49.154Z,47.50
2019-03-18T04:34:16.437Z,47.54
2019-03-18T04:36:43.715Z,47.43
2019-03-18T04:39:10.913Z,47.61
2019-03-18T04:41:38.223Z,47.63
2019-03-18T04:44:05.550Z,47.63
2019-03-18T04:46:32.761Z,47.62
2019-03-18T04:48:59.974Z,47.61
2019-03-18T04:51:27.210Z,47.54
2019-03-18T04:53:54.454Z,47.58
2019-03-18T04:56:21.713Z,47.60
2019-03-18T04:58:48.978Z,47.53
2019-03-18T05:01:16.225Z,47.51
2019-03-18T05:03:43.534Z,47.76
2019-03-18T05:06:10.885Z,47.62
2019-03-18T05:08:38.098Z,47.52
2019-03-18T05:11:05.462Z,47.38
2019-03-18T05:13:32.669Z,47.46
2019-03-18T05:15:59.867Z,47.42
2019-03-18T05:18:27.098Z,47.30
2019-03-18T05:20:54.341Z,47.40
2019-03-18T05:23:21.587Z,47.40
2019-03-18T05:25:48.831Z,47.68
2019-03-18T05:28:16.061Z,47.57
2019-03-18T05:30:43.296Z,47.53
2019-03-18T05:33:10.813Z,48.04
2019-03-18T05:35:38.306Z,47.53
2019-03-18T05:38:05.659Z,47.42
2019-03-18T05:40:33.097Z,47.37
2019-03-18T05:43:00.313Z,47.15
2019-03-18T05:45:27.504Z,47.15
2019-03-18T05:47:54.697Z,46.78
2019-03-18T05:50:21.965Z,46.78
2019-03-18T05:52:49.155Z,46.46
2019-03-18T05:55:16.427Z,46.55
2019-03-18T05:57:43.630Z,46.61
2019-03-18T06:00:10.883Z,46.52
2019-03-18T06:02:38.068Z,46.30
2019-03-18T06:05:05.681Z,46.32
2019-03-18T06:07:32.868Z,46.06
2019-03-18T06:10:00.052Z,46.06
2019-03-18T06:12:27.380Z,45.99
2019-03-18T06:14:54.974Z,47.67
2019-03-18T06:17:25.067Z,47.67
2019-03-18T06:19:52.398Z,46.87
2019-03-18T06:22:19.722Z,46.76
2019-03-18T06:24:47.090Z,47.08
2019-03-18T06:27:14.502Z,47.21
2019-03-18T06:29:41.739Z,46.65
2019-03-18T06:32:08.940Z,46.46
2019-03-18T06:34:36.119Z,46.28
2019-03-18T06:37:04.022Z,46.16
2019-03-18T06:39:31.242Z,45.76
2019-03-18T06:41:58.469Z,45.76
2019-03-18T06:44:25.712Z,46.22
2019-03-18T06:46:52.935Z,46.06
2019-03-18T06:49:20.254Z,46.06
2019-03-18T06:51:47.536Z,45.83
2019-03-18T06:54:14.737Z,45.83
2019-03-18T06:56:41.974Z,45.83
2019-03-18T06:59:09.206Z,45.96
2019-03-18T07:01:36.426Z,45.82
2019-03-18T07:04:03.649Z,45.71
2019-03-18T07:06:30.851Z,45.47
2019-03-18T07:09:01.136Z,45.57
2019-03-18T07:11:28.387Z,45.27
2019-03-18T07:13:55.613Z,45.31
2019-03-18T07:16:22.804Z,46.19
2019-03-18T07:18:50.080Z,46.14
2019-03-18T07:21:17.271Z,46.01
2019-03-18T07:23:44.474Z,45.59
2019-03-18T07:26:11.702Z,45.62
2019-03-18T07:28:38.970Z,45.63
2019-03-18T07:31:06.185Z,45.46
2019-03-18T07:33:33.404Z,45.46
2019-03-18T07:36:00.599Z,45.22
2019-03-18T07:38:27.847Z,45.26
2019-03-18T07:40:55.338Z,45.08
2019-03-18T07:43:22.771Z,45.03
2019-03-18T07:45:50.005Z,44.72
2019-03-18T07:48:29.999Z,44.95
2019-03-18T07:50:46.369Z,44.69
2019-03-18T07:53:13.688Z,44.67
2019-03-18T07:55:40.972Z,44.56
2019-03-18T07:58:08.373Z,44.39
2019-03-18T08:00:35.824Z,44.13
2019-03-18T08:03:03.863Z,44.18
2019-03-18T08:05:31.095Z,44.09
2019-03-18T08:07:58.385Z,44.10
2019-03-18T08:10:25.947Z,44.05
2019-03-18T08:12:53.589Z,43.94
2019-03-18T08:15:20.783Z,43.95
2019-03-18T08:17:48.008Z,43.90
2019-03-18T08:20:15.234Z,43.73
2019-03-18T08:22:42.925Z,43.51
2019-03-18T08:25:10.353Z,43.56
2019-03-18T08:27:37.766Z,43.62
2019-03-18T08:30:05.161Z,43.49
2019-03-18T08:32:32.380Z,43.44
2019-03-18T08:34:59.679Z,43.43
2019-03-18T08:37:26.984Z,43.30
2019-03-18T08:39:54.544Z,43.41
2019-03-18T08:42:23.411Z,43.22
2019-03-18T08:44:50.932Z,43.48
2019-03-18T08:47:18.138Z,43.46
2019-03-18T08:49:45.514Z,43.44
2019-03-18T08:52:12.829Z,43.39
2019-03-18T08:54:40.011Z,43.30
2019-03-18T08:57:07.527Z,43.31
2019-03-18T08:59:34.711Z,43.23
2019-03-18T09:02:01.979Z,43.15
2019-03-18T09:04:29.243Z,43.20
2019-03-18T09:06:56.424Z,43.15
2019-03-18T09:09:23.619Z,43.10
2019-03-18T09:11:50.871Z,43.14
2019-03-18T09:14:18.398Z,43.15
2019-03-18T09:16:47.000Z,43.11
2019-03-18T09:19:14.508Z,43.03
2019-03-18T09:21:42.417Z,42.80
2019-03-18T09:24:09.990Z,42.86
2019-03-18T09:26:37.606Z,42.72
2019-03-18T09:29:05.081Z,42.65
2019-03-18T09:31:32.658Z,42.76
2019-03-18T09:33:59.829Z,42.75
2019-03-18T09:36:27.709Z,42.58
2019-03-18T09:38:55.669Z,42.52
2019-03-18T09:41:23.001Z,42.54
2019-03-18T09:43:50.804Z,42.43
2019-03-18T09:46:18.251Z,42.29
2019-03-18T09:48:45.619Z,42.26
2019-03-18T09:51:12.856Z,42.36
2019-03-18T09:53:40.005Z,42.09
2019-03-18T09:56:07.247Z,42.30
2019-03-18T09:58:34.427Z,42.21
2019-03-18T10:01:01.800Z,42.19
2019-03-18T10:03:28.966Z,42.11
2019-03-18T10:05:56.196Z,42.19
2019-03-18T10:08:25.192Z,42.08
2019-03-18T10:10:52.566Z,41.88
2019-03-18T10:13:19.753Z,41.75
2019-03-18T10:15:46.978Z,41.70
2019-03-18T10:18:18.493Z,42.06
2019-03-18T10:20:45.694Z,42.26
2019-03-18T10:23:12.918Z,42.25
2019-03-18T10:25:40.110Z,42.23
2019-03-18T10:28:07.330Z,42.17
2019-03-18T10:30:34.530Z,42.14
2019-03-18T10:33:01.857Z,42.16
2019-03-18T10:35:29.075Z,42.00
2019-03-18T10:37:56.274Z,41.99
2019-03-18T10:40:23.500Z,41.97
2019-03-18T10:42:50.686Z,41.74
2019-03-18T10:45:17.890Z,41.78
2019-03-18T10:47:45.126Z,41.76
2019-03-18T10:50:12.449Z,41.57
2019-03-18T10:52:39.802Z,41.02
2019-03-18T10:55:07.460Z,41.37
2019-03-18T10:57:34.669Z,41.83
2019-03-18T11:00:01.977Z,41.88
2019-03-18T11:02:29.204Z,42.07
2019-03-18T11:04:56.482Z,42.04
2019-03-18T11:07:23.702Z,42.01
2019-03-18T11:09:50.900Z,42.33
2019-03-18T11:12:18.156Z,42.37
2019-03-18T11:14:45.403Z,42.36
2019-03-18T11:17:12.675Z,42.48
2019-03-18T11:19:39.905Z,42.48
2019-03-18T11:22:07.136Z,42.27
2019-03-18T11:24:34.313Z,42.30
2019-03-18T11:27:01.524Z,42.38
2019-03-18T11:29:28.770Z,42.39
2019-03-18T11:31:57.153Z,42.35
2019-03-18T11:34:25.154Z,42.39
2019-03-18T11:36:52.489Z,42.53
2019-03-18T11:39:19.863Z,42.41
2019-03-18T11:41:56.082Z,42.40
2019-03-18T11:44:23.570Z,42.61
2019-03-18T11:46:50.812Z,42.70
2019-03-18T11:49:18.122Z,42.80
2019-03-18T11:51:45.450Z,42.72
2019-03-18T11:54:12.710Z,42.76
2019-03-18T12:00:16.585Z,42.49
2019-03-18T12:02:43.953Z,42.60
2019-03-18T12:05:13.014Z,42.41
2019-03-18T12:07:40.270Z,42.44
2019-03-18T12:10:09.430Z,42.23
2019-03-18T12:12:36.643Z,42.26
2019-03-18T12:15:04.770Z,42.26
2019-03-18T12:17:32.112Z,42.12
2019-03-18T12:19:59.336Z,42.15
2019-03-18T12:22:26.505Z,42.82
2019-03-18T12:24:53.750Z,42.74
2019-03-18T12:27:20.928Z,42.59
2019-03-18T12:29:52.555Z,42.28
2019-03-18T12:32:19.886Z,42.18
2019-03-18T12:34:47.062Z,42.61
2019-03-18T12:37:14.342Z,42.24
2019-03-18T12:39:41.547Z,42.29
2019-03-18T12:42:09.500Z,42.21
2019-03-18T12:44:36.691Z,42.18
2019-03-18T12:47:03.894Z,42.19
2019-03-18T12:49:31.202Z,42.41
2019-03-18T12:51:59.926Z,42.53
2019-03-18T12:54:27.727Z,42.82
2019-03-18T12:56:55.054Z,41.97
2019-03-18T12:59:22.232Z,41.91
2019-03-18T13:01:49.470Z,42.02
2019-03-18T13:04:16.711Z,42.09
2019-03-18T13:06:43.963Z,42.10
2019-03-18T13:09:11.159Z,41.89
2019-03-18T13:11:39.264Z,41.74
2019-03-18T13:14:06.586Z,41.66
2019-03-18T13:16:33.781Z,41.59
2019-03-18T13:19:01.080Z,41.82
2019-03-18T13:21:30.694Z,41.65
2019-03-18T13:23:57.463Z,41.77
2019-03-18T13:26:24.906Z,41.58
2019-03-18T13:28:52.110Z,41.59
2019-03-18T13:31:19.387Z,41.60
2019-03-18T13:33:46.575Z,41.26
2019-03-18T13:36:16.102Z,41.19
2019-03-18T13:38:43.338Z,41.05
2019-03-18T13:41:10.715Z,41.10
2019-03-18T13:43:37.899Z,41.89
2019-03-18T13:46:05.156Z,41.52
2019-03-18T13:48:32.398Z,41.38
2019-03-18T13:50:59.591Z,41.35
2019-03-18T13:53:26.843Z,41.09
2019-03-18T13:55:54.015Z,41.15
2019-03-18T13:58:21.170Z,40.90
2019-03-18T14:00:48.407Z,40.97
2019-03-18T14:03:15.710Z,40.64
2019-03-18T14:05:42.959Z,39.84
2019-03-18T14:08:10.249Z,39.68
2019-03-18T14:10:37.421Z,39.63
2019-03-18T14:13:04.655Z,39.26
2019-03-18T14:15:31.906Z,38.75
2019-03-18T14:17:59.171Z,38.37
2019-03-18T14:20:26.450Z,38.12
2019-03-18T14:22:53.648Z,38.48
2019-03-18T14:25:20.909Z,38.79
2019-03-18T14:27:48.245Z,39.11
2019-03-18T14:30:15.537Z,38.99
2019-03-18T14:32:42.739Z,39.31
2019-03-18T14:35:09.942Z,39.22
2019-03-18T14:37:37.142Z,39.75
2019-03-18T14:40:05.266Z,40.13
2019-03-18T14:42:32.531Z,40.19
2019-03-18T14:45:00.607Z,40.20
2019-03-18T14:47:27.823Z,40.80
2019-03-18T14:49:55.014Z,41.31
2019-03-18T14:52:22.253Z,41.55
2019-03-18T14:54:49.475Z,41.80
2019-03-18T14:57:16.710Z,41.96
2019-03-18T14:59:43.963Z,42.06
2019-03-18T15:02:11.180Z,42.15
2019-03-18T15:04:38.427Z,42.26
2019-03-18T15:07:05.594Z,42.20
2019-03-18T15:09:32.795Z,42.12
2019-03-18T15:12:00.021Z,42.04
2019-03-18T15:14:27.263Z,42.11
2019-03-18T15:16:54.458Z,42.02
2019-03-18T15:19:21.655Z,42.10
2019-03-18T15:21:57.960Z,42.17
2019-03-18T15:24:17.929Z,42.21
2019-03-18T15:26:45.126Z,42.29
2019-03-18T15:29:12.319Z,42.30
2019-03-18T15:31:39.653Z,42.21
2019-03-18T15:34:06.859Z,42.11
2019-03-18T15:36:34.070Z,42.01
2019-03-18T15:39:02.350Z,41.80
2019-03-18T15:41:29.579Z,41.78
2019-03-18T15:43:56.785Z,41.12
2019-03-18T15:46:24.010Z,40.48
2019-03-18T15:48:51.247Z,40.09
2019-03-18T15:51:18.422Z,40.61
2019-03-18T15:53:45.743Z,40.50
2019-03-18T15:56:12.946Z,40.67
2019-03-18T15:58:40.160Z,40.40
2019-03-18T16:01:07.486Z,39.70
2019-03-18T16:03:34.651Z,39.57
2019-03-18T16:06:01.869Z,39.63
2019-03-18T16:08:29.141Z,40.04
2019-03-18T16:10:56.344Z,40.29
2019-03-18T16:13:23.524Z,40.76
2019-03-18T16:15:50.768Z,40.89
2019-03-18T16:18:17.971Z,41.05
2019-03-18T16:20:45.143Z,41.34
2019-03-18T16:23:12.391Z,41.41
2019-03-18T16:25:39.569Z,41.60
2019-03-18T16:28:06.983Z,41.64
2019-03-18T16:30:34.206Z,41.75
2019-03-18T16:33:01.402Z,41.70
2019-03-18T16:35:28.620Z,41.63
2019-03-18T16:37:55.848Z,41.24
2019-03-18T16:40:23.143Z,41.05
2019-03-18T16:42:50.321Z,41.07
2019-03-18T16:45:17.561Z,40.97
2019-03-18T16:47:44.736Z,41.12
2019-03-18T16:50:22.354Z,41.11
2019-03-18T16:52:49.606Z,41.18
2019-03-18T16:56:43.066Z,41.34
2019-03-18T16:59:10.245Z,41.40
2019-03-18T17:01:37.535Z,41.42
2019-03-18T17:04:04.714Z,41.59
2019-03-18T17:06:32.080Z,41.71
2019-03-18T17:08:59.275Z,41.89
2019-03-18T17:11:26.478Z,41.90
2019-03-18T17:13:53.759Z,42.11
2019-03-18T17:16:20.935Z,42.19
2019-03-18T17:18:48.287Z,42.53
2019-03-18T17:21:15.584Z,42.85
2019-03-18T17:23:42.794Z,42.83
2019-03-18T17:26:10.132Z,42.78
2019-03-18T17:28:37.576Z,42.92
2019-03-18T17:31:05.068Z,43.11
2019-03-18T17:33:32.329Z,43.30
2019-03-18T17:35:59.548Z,43.44
2019-03-18T17:38:26.847Z,43.41
2019-03-18T17:40:54.165Z,43.90
2019-03-18T17:43:21.505Z,44.14
2019-03-18T17:45:49.773Z,44.08
2019-03-18T17:48:18.672Z,44.15
2019-03-18T17:50:46.166Z,43.97
2019-03-18T17:53:13.795Z,44.25
2019-03-18T17:55:42.546Z,44.29
2019-03-18T17:58:09.929Z,44.35
2019-03-18T18:00:43.380Z,44.45
2019-03-18T18:03:10.606Z,44.49
2019-03-18T18:05:37.831Z,44.58
2019-03-18T18:08:05.000Z,44.45
2019-03-18T18:10:32.243Z,44.42
2019-03-18T18:12:59.427Z,44.54
2019-03-18T18:15:26.665Z,44.80
2019-03-18T18:17:53.866Z,45.12
2019-03-18T18:20:21.056Z,45.20
2019-03-18T18:22:48.300Z,44.97
2019-03-18T18:25:15.514Z,44.81
2019-03-18T18:27:42.695Z,44.78
2019-03-18T18:30:09.911Z,44.70
2019-03-18T18:32:37.089Z,44.70
2019-03-18T18:35:05.198Z,44.70
2019-03-18T18:37:32.411Z,44.71
2019-03-18T18:39:59.643Z,44.72
2019-03-18T18:42:27.006Z,44.64
2019-03-18T18:44:54.181Z,44.61
2019-03-18T18:47:21.386Z,44.64
2019-03-18T18:49:48.722Z,44.62
2019-03-18T18:52:15.969Z,44.55
2019-03-18T18:54:43.179Z,44.55
2019-03-18T18:57:10.383Z,44.46
2019-03-18T18:59:37.581Z,44.55
2019-03-18T19:02:04.763Z,44.55
2019-03-18T19:04:32.029Z,44.58
2019-03-18T19:06:59.251Z,44.56
2019-03-18T19:09:26.440Z,44.49
2019-03-18T19:11:53.703Z,44.56
2019-03-18T19:14:20.931Z,44.66
2019-03-18T19:16:48.147Z,45.08
2019-03-18T19:19:15.347Z,45.26
2019-03-18T19:21:42.767Z,44.87
2019-03-18T19:24:11.584Z,44.79
2019-03-18T19:26:39.007Z,44.96
2019-03-18T19:29:06.251Z,44.99
2019-03-18T19:31:33.443Z,45.09
2019-03-18T19:34:00.635Z,45.17
2019-03-18T19:36:27.856Z,45.19
2019-03-18T19:38:55.111Z,45.15
2019-03-18T19:41:22.351Z,45.47
2019-03-18T19:43:49.572Z,45.53
2019-03-18T19:46:16.801Z,45.58
2019-03-18T19:48:43.966Z,45.43
2019-03-18T19:51:11.211Z,45.74
2019-03-18T19:53:48.571Z,45.78
2019-03-18T19:56:07.579Z,45.91
2019-03-18T19:58:34.736Z,45.87
2019-03-18T20:01:01.979Z,45.79
2019-03-18T20:03:29.545Z,45.80
2019-03-18T20:05:56.759Z,46.05
2019-03-18T20:08:24.021Z,45.86
2019-03-18T20:10:51.273Z,45.86
2019-03-18T20:13:18.484Z,45.86
2019-03-18T20:15:45.739Z,45.75
2019-03-18T20:18:12.926Z,45.86
2019-03-18T20:20:40.145Z,45.95
2019-03-18T20:23:07.436Z,46.09
2019-03-18T20:25:34.605Z,46.24
2019-03-18T20:28:01.847Z,45.93
2019-03-18T20:30:29.037Z,45.86
2019-03-18T20:32:56.241Z,45.73
2019-03-18T20:35:23.535Z,45.68
2019-03-18T20:37:52.123Z,45.58
2019-03-18T20:40:19.721Z,46.02
2019-03-18T20:42:47.052Z,45.84
2019-03-18T20:45:15.750Z,45.75
2019-03-18T20:47:43.039Z,45.65
2019-03-18T20:50:12.473Z,45.54
2019-03-18T20:52:39.638Z,45.43
2019-03-18T20:55:07.762Z,45.53
2019-03-18T20:57:35.118Z,45.52
2019-03-18T21:00:03.291Z,45.64
2019-03-18T21:02:30.487Z,45.41
2019-03-18T21:04:57.672Z,46.42
2019-03-18T21:07:25.060Z,45.63
2019-03-18T21:09:53.125Z,45.57
2019-03-18T21:12:20.360Z,45.61
2019-03-18T21:14:47.738Z,45.97
2019-03-18T21:17:14.903Z,45.84
2019-03-18T21:19:42.158Z,46.02
2019-03-18T21:22:09.388Z,46.27
2019-03-18T21:24:36.672Z,46.28
2019-03-18T21:27:04.166Z,46.30
2019-03-18T21:29:31.395Z,46.32
2019-03-18T21:31:59.011Z,46.00
2019-03-18T21:34:26.311Z,45.86
2019-03-18T21:36:53.876Z,45.95
2019-03-18T21:39:21.154Z,45.98
2019-03-18T21:41:48.820Z,45.86
2019-03-18T21:44:16.127Z,46.07
2019-03-18T21:46:43.641Z,46.49
2019-03-18T21:49:11.981Z,46.64
2019-03-18T21:51:39.362Z,46.56
2019-03-18T21:54:06.606Z,46.45
2019-03-18T21:56:33.833Z,46.35
2019-03-18T21:59:02.000Z,45.97
2019-03-18T22:01:29.373Z,45.90
2019-03-18T22:03:56.583Z,46.05
2019-03-18T22:06:23.953Z,46.03
2019-03-18T22:08:51.167Z,46.03
2019-03-18T22:11:18.337Z,46.03
2019-03-18T22:13:45.640Z,46.01
2019-03-18T22:16:12.951Z,45.99
2019-03-18T22:18:40.264Z,46.10
2019-03-18T22:21:07.707Z,45.94
2019-03-18T22:23:35.023Z,46.03
2019-03-18T22:26:04.651Z,46.04
2019-03-18T22:28:31.881Z,46.05
2019-03-18T22:30:59.132Z,45.98
2019-03-18T22:33:26.367Z,45.94
2019-03-18T22:35:53.600Z,45.95
2019-03-18T22:38:20.802Z,45.94
2019-03-18T22:40:48.186Z,45.93
2019-03-18T22:43:15.396Z,45.97
2019-03-18T22:45:42.775Z,46.02
2019-03-18T22:48:10.155Z,46.03
2019-03-18T22:50:37.359Z,45.95
2019-03-18T22:53:04.678Z,45.92
2019-03-18T22:55:31.992Z,45.97
2019-03-18T22:57:59.381Z,45.88
2019-03-18T23:00:58.377Z,46.04
2019-03-18T23:03:25.557Z,45.96
2019-03-18T23:05:52.808Z,46.02
2019-03-18T23:08:20.170Z,46.24
2019-03-18T23:10:47.438Z,46.06
2019-03-18T23:13:14.656Z,46.14
2019-03-18T23:15:42.106Z,46.03
2019-03-18T23:18:09.250Z,45.97
2019-03-18T23:20:36.571Z,45.93
2019-03-18T23:23:03.911Z,46.07
2019-03-18T23:25:31.094Z,46.03
2019-03-18T23:27:58.302Z,46.18
2019-03-18T23:30:25.511Z,46.22
2019-03-18T23:32:52.707Z,46.40
2019-03-18T23:35:20.073Z,46.69
2019-03-18T23:37:47.258Z,46.35
2019-03-18T23:40:14.683Z,46.40
2019-03-18T23:42:42.114Z,46.82
2019-03-18T23:45:09.497Z,46.87
2019-03-18T23:47:38.036Z,46.94
2019-03-18T23:50:05.633Z,47.03
2019-03-18T23:52:32.997Z,46.92
2019-03-18T23:55:00.289Z,46.90
2019-03-18T23:57:28.763Z,46.97
2019-03-18T23:59:56.077Z,46.92
